sensor_id;sensor_type;location;lat;lon;timestamp;P1;durP1;ratioP1;P2;durP2;ratioP2
54993;SDS011;40891;47.242;8.648;2023-02-15T00:02:24;180.57;;;27.57;;
54993;SDS011;40891;47.242;8.648;2023-02-15T00:04:49;312.07;;;29.57;;
54993;SDS011;40891;47.242;8.648;2023-02-15T00:07:15;224.90;;;25.20;;
54993;SDS011;40891;47.242;8.648;2023-02-15T00:09:42;184.87;;;23.70;;
54993;SDS011;40891;47.242;8.648;2023-02-15T00:12:10;312.80;;;29.90;;
54993;SDS011;40891;47.242;8.648;2023-02-15T00:14:36;170.33;;;25.50;;
54993;SDS011;40891;47.242;8.648;2023-02-15T00:17:01;211.17;;;26.20;;
54993;SDS011;40891;47.242;8.648;2023-02-15T00:19:26;165.70;;;24.07;;
54993;SDS011;40891;47.242;8.648;2023-02-15T00:21:52;259.67;;;25.73;;
54993;SDS011;40891;47.242;8.648;2023-02-15T00:24:18;332.47;;;32.87;;
54993;SDS011;40891;47.242;8.648;2023-02-15T00:26:45;264.50;;;29.90;;
54993;SDS011;40891;47.242;8.648;2023-02-15T00:29:12;277.03;;;28.00;;
54993;SDS011;40891;47.242;8.648;2023-02-15T00:31:39;211.43;;;24.57;;
54993;SDS011;40891;47.242;8.648;2023-02-15T00:34:10;192.00;;;24.80;;
54993;SDS011;40891;47.242;8.648;2023-02-15T00:36:38;208.33;;;26.83;;
54993;SDS011;40891;47.242;8.648;2023-02-15T00:39:03;139.37;;;20.73;;
54993;SDS011;40891;47.242;8.648;2023-02-15T00:41:32;293.23;;;28.80;;
54993;SDS011;40891;47.242;8.648;2023-02-15T00:43:57;208.70;;;24.73;;
54993;SDS011;40891;47.242;8.648;2023-02-15T00:46:23;161.60;;;25.57;;
54993;SDS011;40891;47.242;8.648;2023-02-15T00:48:48;139.20;;;23.43;;
54993;SDS011;40891;47.242;8.648;2023-02-15T00:51:14;146.37;;;24.03;;
54993;SDS011;40891;47.242;8.648;2023-02-15T00:53:39;129.77;;;22.37;;
54993;SDS011;40891;47.242;8.648;2023-02-15T00:56:05;138.27;;;21.43;;
54993;SDS011;40891;47.242;8.648;2023-02-15T00:58:30;278.33;;;27.83;;
54993;SDS011;40891;47.242;8.648;2023-02-15T01:01:01;212.00;;;26.33;;
54993;SDS011;40891;47.242;8.648;2023-02-15T01:03:28;211.40;;;26.77;;
54993;SDS011;40891;47.242;8.648;2023-02-15T01:05:54;236.53;;;27.47;;
54993;SDS011;40891;47.242;8.648;2023-02-15T01:08:19;297.30;;;28.07;;
54993;SDS011;40891;47.242;8.648;2023-02-15T01:10:44;297.23;;;29.60;;
54993;SDS011;40891;47.242;8.648;2023-02-15T01:13:12;141.70;;;23.57;;
54993;SDS011;40891;47.242;8.648;2023-02-15T01:15:37;311.60;;;33.43;;
54993;SDS011;40891;47.242;8.648;2023-02-15T01:18:03;184.63;;;23.10;;
54993;SDS011;40891;47.242;8.648;2023-02-15T01:20:28;204.83;;;24.87;;
54993;SDS011;40891;47.242;8.648;2023-02-15T01:22:54;201.20;;;24.83;;
54993;SDS011;40891;47.242;8.648;2023-02-15T01:25:21;226.87;;;24.17;;
54993;SDS011;40891;47.242;8.648;2023-02-15T01:27:48;188.10;;;25.27;;
54993;SDS011;40891;47.242;8.648;2023-02-15T01:30:14;139.67;;;20.87;;
54993;SDS011;40891;47.242;8.648;2023-02-15T01:32:40;175.57;;;23.57;;
54993;SDS011;40891;47.242;8.648;2023-02-15T01:35:06;117.97;;;20.97;;
54993;SDS011;40891;47.242;8.648;2023-02-15T01:37:32;166.43;;;21.77;;
54993;SDS011;40891;47.242;8.648;2023-02-15T01:39:59;220.13;;;24.27;;
54993;SDS011;40891;47.242;8.648;2023-02-15T01:42:25;217.37;;;25.43;;
54993;SDS011;40891;47.242;8.648;2023-02-15T01:44:56;200.13;;;24.57;;
54993;SDS011;40891;47.242;8.648;2023-02-15T01:50:08;125.10;;;18.33;;
54993;SDS011;40891;47.242;8.648;2023-02-15T01:52:38;209.60;;;22.90;;
54993;SDS011;40891;47.242;8.648;2023-02-15T01:55:07;204.87;;;22.93;;
54993;SDS011;40891;47.242;8.648;2023-02-15T01:57:34;96.47;;;20.47;;
54993;SDS011;40891;47.242;8.648;2023-02-15T02:00:00;72.60;;;18.37;;
54993;SDS011;40891;47.242;8.648;2023-02-15T02:02:30;62.43;;;17.87;;
54993;SDS011;40891;47.242;8.648;2023-02-15T02:05:00;100.10;;;18.33;;
54993;SDS011;40891;47.242;8.648;2023-02-15T02:07:35;107.37;;;18.27;;
54993;SDS011;40891;47.242;8.648;2023-02-15T02:10:04;265.23;;;22.70;;
54993;SDS011;40891;47.242;8.648;2023-02-15T02:12:31;119.50;;;19.87;;
54993;SDS011;40891;47.242;8.648;2023-02-15T02:14:57;130.63;;;20.47;;
54993;SDS011;40891;47.242;8.648;2023-02-15T02:20:15;61.73;;;17.73;;
54993;SDS011;40891;47.242;8.648;2023-02-15T02:23:14;101.87;;;17.80;;
54993;SDS011;40891;47.242;8.648;2023-02-15T02:28:59;149.07;;;18.93;;
54993;SDS011;40891;47.242;8.648;2023-02-15T02:37:28;166.37;;;21.70;;
54993;SDS011;40891;47.242;8.648;2023-02-15T02:43:28;126.33;;;21.30;;
54993;SDS011;40891;47.242;8.648;2023-02-15T02:46:16;158.53;;;21.67;;
54993;SDS011;40891;47.242;8.648;2023-02-15T02:48:45;142.93;;;22.43;;
54993;SDS011;40891;47.242;8.648;2023-02-15T02:51:12;154.87;;;22.27;;
54993;SDS011;40891;47.242;8.648;2023-02-15T02:53:39;113.03;;;19.73;;
54993;SDS011;40891;47.242;8.648;2023-02-15T02:56:14;155.33;;;21.80;;
54993;SDS011;40891;47.242;8.648;2023-02-15T03:01:39;100.77;;;21.77;;
54993;SDS011;40891;47.242;8.648;2023-02-15T03:04:12;181.40;;;23.03;;
54993;SDS011;40891;47.242;8.648;2023-02-15T03:06:47;171.73;;;22.77;;
54993;SDS011;40891;47.242;8.648;2023-02-15T03:09:25;127.33;;;21.57;;
54993;SDS011;40891;47.242;8.648;2023-02-15T03:11:59;163.00;;;22.00;;
54993;SDS011;40891;47.242;8.648;2023-02-15T03:14:26;164.70;;;21.57;;
54993;SDS011;40891;47.242;8.648;2023-02-15T03:16:52;208.00;;;22.70;;
54993;SDS011;40891;47.242;8.648;2023-02-15T03:19:33;264.03;;;24.80;;
54993;SDS011;40891;47.242;8.648;2023-02-15T03:22:03;188.73;;;22.73;;
54993;SDS011;40891;47.242;8.648;2023-02-15T03:24:38;178.77;;;22.87;;
54993;SDS011;40891;47.242;8.648;2023-02-15T03:27:16;160.13;;;22.13;;
54993;SDS011;40891;47.242;8.648;2023-02-15T03:29:46;278.80;;;26.07;;
54993;SDS011;40891;47.242;8.648;2023-02-15T03:32:16;199.90;;;24.63;;
54993;SDS011;40891;47.242;8.648;2023-02-15T03:34:42;244.30;;;25.17;;
54993;SDS011;40891;47.242;8.648;2023-02-15T03:44:33;232.33;;;24.27;;
54993;SDS011;40891;47.242;8.648;2023-02-15T03:47:12;192.87;;;23.10;;
54993;SDS011;40891;47.242;8.648;2023-02-15T03:49:45;154.40;;;22.03;;
54993;SDS011;40891;47.242;8.648;2023-02-15T03:52:16;231.03;;;20.57;;
54993;SDS011;40891;47.242;8.648;2023-02-15T03:54:43;229.37;;;22.43;;
54993;SDS011;40891;47.242;8.648;2023-02-15T03:57:14;186.77;;;23.60;;
54993;SDS011;40891;47.242;8.648;2023-02-15T04:00:12;177.17;;;22.07;;
54993;SDS011;40891;47.242;8.648;2023-02-15T04:05:47;153.97;;;22.83;;
54993;SDS011;40891;47.242;8.648;2023-02-15T04:08:12;179.73;;;21.77;;
54993;SDS011;40891;47.242;8.648;2023-02-15T04:10:37;185.53;;;25.10;;
54993;SDS011;40891;47.242;8.648;2023-02-15T04:13:22;253.90;;;24.67;;
54993;SDS011;40891;47.242;8.648;2023-02-15T04:15:48;136.63;;;23.33;;
54993;SDS011;40891;47.242;8.648;2023-02-15T04:18:33;163.17;;;22.37;;
54993;SDS011;40891;47.242;8.648;2023-02-15T04:21:18;167.07;;;23.20;;
54993;SDS011;40891;47.242;8.648;2023-02-15T04:24:03;165.97;;;20.20;;
54993;SDS011;40891;47.242;8.648;2023-02-15T04:26:47;148.10;;;21.40;;
54993;SDS011;40891;47.242;8.648;2023-02-15T04:29:13;200.50;;;21.80;;
54993;SDS011;40891;47.242;8.648;2023-02-15T04:31:40;280.60;;;27.40;;
54993;SDS011;40891;47.242;8.648;2023-02-15T04:34:05;231.27;;;24.67;;
54993;SDS011;40891;47.242;8.648;2023-02-15T04:36:30;166.90;;;21.60;;
54993;SDS011;40891;47.242;8.648;2023-02-15T04:38:55;256.53;;;24.97;;
54993;SDS011;40891;47.242;8.648;2023-02-15T04:41:21;147.17;;;21.60;;
54993;SDS011;40891;47.242;8.648;2023-02-15T04:43:46;166.23;;;21.73;;
54993;SDS011;40891;47.242;8.648;2023-02-15T04:46:11;209.80;;;23.17;;
54993;SDS011;40891;47.242;8.648;2023-02-15T04:48:37;206.97;;;23.33;;
54993;SDS011;40891;47.242;8.648;2023-02-15T04:51:06;189.00;;;26.60;;
54993;SDS011;40891;47.242;8.648;2023-02-15T04:53:32;109.20;;;21.50;;
54993;SDS011;40891;47.242;8.648;2023-02-15T04:55:58;163.10;;;22.63;;
54993;SDS011;40891;47.242;8.648;2023-02-15T04:58:23;130.07;;;21.50;;
54993;SDS011;40891;47.242;8.648;2023-02-15T05:00:48;121.27;;;21.50;;
54993;SDS011;40891;47.242;8.648;2023-02-15T05:03:14;202.50;;;22.50;;
54993;SDS011;40891;47.242;8.648;2023-02-15T05:05:39;142.90;;;21.53;;
54993;SDS011;40891;47.242;8.648;2023-02-15T05:08:05;80.03;;;20.13;;
54993;SDS011;40891;47.242;8.648;2023-02-15T05:10:30;149.50;;;22.33;;
54993;SDS011;40891;47.242;8.648;2023-02-15T05:12:56;281.57;;;24.00;;
54993;SDS011;40891;47.242;8.648;2023-02-15T05:15:21;201.17;;;22.83;;
54993;SDS011;40891;47.242;8.648;2023-02-15T05:17:46;303.27;;;25.27;;
54993;SDS011;40891;47.242;8.648;2023-02-15T05:20:12;119.77;;;19.40;;
54993;SDS011;40891;47.242;8.648;2023-02-15T05:22:37;97.50;;;18.67;;
54993;SDS011;40891;47.242;8.648;2023-02-15T05:25:03;182.50;;;19.67;;
54993;SDS011;40891;47.242;8.648;2023-02-15T05:27:47;185.87;;;21.40;;
54993;SDS011;40891;47.242;8.648;2023-02-15T05:30:31;185.50;;;20.63;;
54993;SDS011;40891;47.242;8.648;2023-02-15T05:32:56;153.00;;;21.30;;
54993;SDS011;40891;47.242;8.648;2023-02-15T05:35:21;238.97;;;21.67;;
54993;SDS011;40891;47.242;8.648;2023-02-15T05:37:47;188.03;;;20.43;;
54993;SDS011;40891;47.242;8.648;2023-02-15T05:40:12;104.63;;;19.00;;
54993;SDS011;40891;47.242;8.648;2023-02-15T05:42:37;129.33;;;19.30;;
54993;SDS011;40891;47.242;8.648;2023-02-15T05:45:03;97.73;;;18.60;;
54993;SDS011;40891;47.242;8.648;2023-02-15T05:47:29;321.13;;;25.73;;
54993;SDS011;40891;47.242;8.648;2023-02-15T05:49:54;216.87;;;22.23;;
54993;SDS011;40891;47.242;8.648;2023-02-15T05:52:19;189.37;;;22.47;;
54993;SDS011;40891;47.242;8.648;2023-02-15T05:54:45;172.73;;;19.23;;
54993;SDS011;40891;47.242;8.648;2023-02-15T05:57:10;256.80;;;21.63;;
54993;SDS011;40891;47.242;8.648;2023-02-15T05:59:35;213.07;;;21.30;;
54993;SDS011;40891;47.242;8.648;2023-02-15T06:02:01;101.57;;;18.40;;
54993;SDS011;40891;47.242;8.648;2023-02-15T06:04:26;165.70;;;20.43;;
54993;SDS011;40891;47.242;8.648;2023-02-15T06:06:51;170.37;;;20.37;;
54993;SDS011;40891;47.242;8.648;2023-02-15T06:09:17;208.47;;;21.07;;
54993;SDS011;40891;47.242;8.648;2023-02-15T06:11:45;105.00;;;17.83;;
54993;SDS011;40891;47.242;8.648;2023-02-15T06:14:11;179.60;;;20.93;;
54993;SDS011;40891;47.242;8.648;2023-02-15T06:16:36;178.63;;;17.70;;
54993;SDS011;40891;47.242;8.648;2023-02-15T06:19:02;442.63;;;25.57;;
54993;SDS011;40891;47.242;8.648;2023-02-15T06:21:28;321.07;;;22.90;;
54993;SDS011;40891;47.242;8.648;2023-02-15T06:23:53;215.77;;;21.70;;
54993;SDS011;40891;47.242;8.648;2023-02-15T06:26:19;231.47;;;20.87;;
54993;SDS011;40891;47.242;8.648;2023-02-15T06:28:44;158.17;;;19.80;;
54993;SDS011;40891;47.242;8.648;2023-02-15T06:31:09;154.50;;;16.63;;
54993;SDS011;40891;47.242;8.648;2023-02-15T06:33:35;89.43;;;17.60;;
54993;SDS011;40891;47.242;8.648;2023-02-15T06:36:00;141.20;;;16.93;;
54993;SDS011;40891;47.242;8.648;2023-02-15T06:38:26;227.80;;;20.17;;
54993;SDS011;40891;47.242;8.648;2023-02-15T06:40:51;120.70;;;18.40;;
54993;SDS011;40891;47.242;8.648;2023-02-15T06:43:17;106.30;;;17.87;;
54993;SDS011;40891;47.242;8.648;2023-02-15T06:45:42;158.03;;;18.63;;
54993;SDS011;40891;47.242;8.648;2023-02-15T06:48:07;27.77;;;13.37;;
54993;SDS011;40891;47.242;8.648;2023-02-15T06:50:33;28.83;;;12.00;;
54993;SDS011;40891;47.242;8.648;2023-02-15T06:52:59;22.00;;;12.20;;
54993;SDS011;40891;47.242;8.648;2023-02-15T06:55:24;36.97;;;13.13;;
54993;SDS011;40891;47.242;8.648;2023-02-15T06:57:50;164.27;;;18.03;;
54993;SDS011;40891;47.242;8.648;2023-02-15T07:00:16;48.80;;;16.70;;
54993;SDS011;40891;47.242;8.648;2023-02-15T07:02:42;69.40;;;17.13;;
54993;SDS011;40891;47.242;8.648;2023-02-15T07:05:08;95.87;;;17.57;;
54993;SDS011;40891;47.242;8.648;2023-02-15T07:07:33;100.30;;;17.63;;
54993;SDS011;40891;47.242;8.648;2023-02-15T07:09:59;174.97;;;17.57;;
54993;SDS011;40891;47.242;8.648;2023-02-15T07:12:24;158.47;;;17.30;;
54993;SDS011;40891;47.242;8.648;2023-02-15T07:15:10;159.80;;;17.30;;
54993;SDS011;40891;47.242;8.648;2023-02-15T07:17:40;74.53;;;15.40;;
54993;SDS011;40891;47.242;8.648;2023-02-15T07:20:13;136.83;;;17.30;;
54993;SDS011;40891;47.242;8.648;2023-02-15T07:22:41;107.83;;;17.80;;
54993;SDS011;40891;47.242;8.648;2023-02-15T07:25:08;66.90;;;15.63;;
54993;SDS011;40891;47.242;8.648;2023-02-15T07:27:34;126.83;;;17.17;;
54993;SDS011;40891;47.242;8.648;2023-02-15T07:30:00;84.07;;;15.27;;
54993;SDS011;40891;47.242;8.648;2023-02-15T07:32:29;204.00;;;18.83;;
54993;SDS011;40891;47.242;8.648;2023-02-15T07:34:55;136.93;;;19.13;;
54993;SDS011;40891;47.242;8.648;2023-02-15T07:37:21;93.43;;;15.90;;
54993;SDS011;40891;47.242;8.648;2023-02-15T07:39:46;63.20;;;16.07;;
54993;SDS011;40891;47.242;8.648;2023-02-15T07:42:11;150.47;;;18.07;;
54993;SDS011;40891;47.242;8.648;2023-02-15T07:44:37;238.13;;;18.67;;
54993;SDS011;40891;47.242;8.648;2023-02-15T07:47:02;157.50;;;18.50;;
54993;SDS011;40891;47.242;8.648;2023-02-15T07:49:28;110.97;;;15.23;;
54993;SDS011;40891;47.242;8.648;2023-02-15T07:51:53;106.70;;;16.43;;
54993;SDS011;40891;47.242;8.648;2023-02-15T07:54:18;159.30;;;16.00;;
54993;SDS011;40891;47.242;8.648;2023-02-15T07:56:44;169.50;;;16.63;;
54993;SDS011;40891;47.242;8.648;2023-02-15T07:59:09;67.03;;;14.37;;
54993;SDS011;40891;47.242;8.648;2023-02-15T08:01:35;130.60;;;17.43;;
54993;SDS011;40891;47.242;8.648;2023-02-15T08:04:02;121.13;;;16.73;;
54993;SDS011;40891;47.242;8.648;2023-02-15T08:06:31;74.67;;;13.47;;
54993;SDS011;40891;47.242;8.648;2023-02-15T08:08:58;84.00;;;14.20;;
54993;SDS011;40891;47.242;8.648;2023-02-15T08:11:25;53.83;;;14.00;;
54993;SDS011;40891;47.242;8.648;2023-02-15T08:16:34;91.87;;;14.97;;
54993;SDS011;40891;47.242;8.648;2023-02-15T08:19:03;119.10;;;15.87;;
54993;SDS011;40891;47.242;8.648;2023-02-15T08:21:37;48.83;;;13.37;;
54993;SDS011;40891;47.242;8.648;2023-02-15T08:24:05;65.87;;;14.43;;
54993;SDS011;40891;47.242;8.648;2023-02-15T08:26:32;125.60;;;15.73;;
54993;SDS011;40891;47.242;8.648;2023-02-15T08:28:58;113.07;;;15.93;;
54993;SDS011;40891;47.242;8.648;2023-02-15T08:31:24;91.07;;;14.70;;
54993;SDS011;40891;47.242;8.648;2023-02-15T08:33:52;148.50;;;15.13;;
54993;SDS011;40891;47.242;8.648;2023-02-15T08:36:20;50.70;;;13.87;;
54993;SDS011;40891;47.242;8.648;2023-02-15T08:38:47;46.10;;;13.97;;
54993;SDS011;40891;47.242;8.648;2023-02-15T08:41:17;158.27;;;15.83;;
54993;SDS011;40891;47.242;8.648;2023-02-15T08:43:45;63.53;;;13.73;;
54993;SDS011;40891;47.242;8.648;2023-02-15T08:46:12;144.27;;;15.63;;
54993;SDS011;40891;47.242;8.648;2023-02-15T08:48:39;54.33;;;14.07;;
54993;SDS011;40891;47.242;8.648;2023-02-15T08:51:09;49.17;;;14.73;;
54993;SDS011;40891;47.242;8.648;2023-02-15T08:53:46;71.93;;;14.43;;
54993;SDS011;40891;47.242;8.648;2023-02-15T08:56:16;45.40;;;13.23;;
54993;SDS011;40891;47.242;8.648;2023-02-15T08:58:43;33.83;;;12.63;;
54993;SDS011;40891;47.242;8.648;2023-02-15T09:01:42;71.80;;;13.63;;
54993;SDS011;40891;47.242;8.648;2023-02-15T09:04:01;65.57;;;15.97;;
54993;SDS011;40891;47.242;8.648;2023-02-15T09:06:33;84.30;;;12.90;;
54993;SDS011;40891;47.242;8.648;2023-02-15T09:08:59;111.17;;;14.03;;
54993;SDS011;40891;47.242;8.648;2023-02-15T09:11:25;62.17;;;15.00;;
54993;SDS011;40891;47.242;8.648;2023-02-15T09:13:53;34.17;;;13.40;;
54993;SDS011;40891;47.242;8.648;2023-02-15T09:16:27;87.00;;;14.17;;
54993;SDS011;40891;47.242;8.648;2023-02-15T09:18:54;70.83;;;14.50;;
54993;SDS011;40891;47.242;8.648;2023-02-15T09:21:22;101.43;;;15.60;;
54993;SDS011;40891;47.242;8.648;2023-02-15T09:23:50;48.10;;;12.37;;
54993;SDS011;40891;47.242;8.648;2023-02-15T09:26:20;64.43;;;13.43;;
54993;SDS011;40891;47.242;8.648;2023-02-15T09:28:47;59.90;;;13.17;;
54993;SDS011;40891;47.242;8.648;2023-02-15T09:31:17;71.17;;;13.53;;
54993;SDS011;40891;47.242;8.648;2023-02-15T09:33:45;45.80;;;13.27;;
54993;SDS011;40891;47.242;8.648;2023-02-15T09:36:16;35.03;;;12.03;;
54993;SDS011;40891;47.242;8.648;2023-02-15T09:38:44;141.53;;;14.00;;
54993;SDS011;40891;47.242;8.648;2023-02-15T09:44:14;38.20;;;12.30;;
54993;SDS011;40891;47.242;8.648;2023-02-15T09:49:42;32.63;;;12.57;;
54993;SDS011;40891;47.242;8.648;2023-02-15T09:53:20;26.83;;;11.50;;
54993;SDS011;40891;47.242;8.648;2023-02-15T10:06:10;40.80;;;11.53;;
54993;SDS011;40891;47.242;8.648;2023-02-15T10:11:54;21.90;;;11.93;;
54993;SDS011;40891;47.242;8.648;2023-02-15T10:17:47;19.87;;;11.03;;
54993;SDS011;40891;47.242;8.648;2023-02-15T10:20:47;19.80;;;10.87;;
54993;SDS011;40891;47.242;8.648;2023-02-15T10:23:34;19.27;;;9.87;;
54993;SDS011;40891;47.242;8.648;2023-02-15T10:26:53;21.57;;;10.20;;
54993;SDS011;40891;47.242;8.648;2023-02-15T10:29:34;19.03;;;10.77;;
54993;SDS011;40891;47.242;8.648;2023-02-15T10:40:02;24.37;;;11.77;;
54993;SDS011;40891;47.242;8.648;2023-02-15T10:45:23;19.37;;;10.67;;
54993;SDS011;40891;47.242;8.648;2023-02-15T10:50:46;23.83;;;11.50;;
54993;SDS011;40891;47.242;8.648;2023-02-15T10:53:24;29.07;;;13.03;;
54993;SDS011;40891;47.242;8.648;2023-02-15T10:55:55;21.57;;;12.37;;
54993;SDS011;40891;47.242;8.648;2023-02-15T11:01:10;25.40;;;11.10;;
54993;SDS011;40891;47.242;8.648;2023-02-15T11:06:27;19.93;;;10.40;;
54993;SDS011;40891;47.242;8.648;2023-02-15T11:08:54;21.40;;;11.77;;
54993;SDS011;40891;47.242;8.648;2023-02-15T11:11:43;21.50;;;11.40;;
54993;SDS011;40891;47.242;8.648;2023-02-15T11:14:22;22.60;;;11.63;;
54993;SDS011;40891;47.242;8.648;2023-02-15T11:16:57;21.27;;;11.20;;
54993;SDS011;40891;47.242;8.648;2023-02-15T11:19:33;21.40;;;11.43;;
54993;SDS011;40891;47.242;8.648;2023-02-15T11:22:03;20.30;;;11.80;;
54993;SDS011;40891;47.242;8.648;2023-02-15T11:24:40;22.43;;;12.37;;
54993;SDS011;40891;47.242;8.648;2023-02-15T11:29:41;23.20;;;12.40;;
54993;SDS011;40891;47.242;8.648;2023-02-15T11:32:26;20.90;;;11.67;;
54993;SDS011;40891;47.242;8.648;2023-02-15T11:37:36;20.43;;;12.37;;
54993;SDS011;40891;47.242;8.648;2023-02-15T11:43:07;20.60;;;12.27;;
54993;SDS011;40891;47.242;8.648;2023-02-15T11:45:42;19.93;;;11.00;;
54993;SDS011;40891;47.242;8.648;2023-02-15T11:48:10;19.60;;;11.10;;
54993;SDS011;40891;47.242;8.648;2023-02-15T11:50:38;23.63;;;12.10;;
54993;SDS011;40891;47.242;8.648;2023-02-15T11:53:04;19.70;;;12.03;;
54993;SDS011;40891;47.242;8.648;2023-02-15T11:55:35;19.30;;;11.77;;
54993;SDS011;40891;47.242;8.648;2023-02-15T12:03:47;25.73;;;11.83;;
54993;SDS011;40891;47.242;8.648;2023-02-15T12:06:16;23.50;;;11.60;;
54993;SDS011;40891;47.242;8.648;2023-02-15T12:08:50;22.97;;;11.33;;
54993;SDS011;40891;47.242;8.648;2023-02-15T12:11:22;18.90;;;10.50;;
54993;SDS011;40891;47.242;8.648;2023-02-15T12:16:21;18.93;;;11.73;;
54993;SDS011;40891;47.242;8.648;2023-02-15T12:18:46;16.33;;;10.60;;
54993;SDS011;40891;47.242;8.648;2023-02-15T12:21:15;18.87;;;11.07;;
54993;SDS011;40891;47.242;8.648;2023-02-15T12:23:51;16.90;;;11.37;;
54993;SDS011;40891;47.242;8.648;2023-02-15T12:26:37;17.90;;;11.23;;
54993;SDS011;40891;47.242;8.648;2023-02-15T12:29:07;17.10;;;11.00;;
54993;SDS011;40891;47.242;8.648;2023-02-15T12:31:41;20.43;;;10.60;;
54993;SDS011;40891;47.242;8.648;2023-02-15T12:34:12;20.05;;;11.50;;
54993;SDS011;40891;47.242;8.648;2023-02-15T12:36:51;15.65;;;10.77;;
54993;SDS011;40891;47.242;8.648;2023-02-15T12:39:24;16.45;;;10.13;;
54993;SDS011;40891;47.242;8.648;2023-02-15T12:44:24;13.75;;;10.45;;
54993;SDS011;40891;47.242;8.648;2023-02-15T12:47:18;12.35;;;9.90;;
54993;SDS011;40891;47.242;8.648;2023-02-15T12:49:44;14.73;;;10.82;;
54993;SDS011;40891;47.242;8.648;2023-02-15T12:52:30;13.02;;;10.93;;
54993;SDS011;40891;47.242;8.648;2023-02-15T12:54:56;16.80;;;10.40;;
54993;SDS011;40891;47.242;8.648;2023-02-15T13:00:47;13.80;;;10.45;;
54993;SDS011;40891;47.242;8.648;2023-02-15T13:03:26;11.93;;;10.07;;
54993;SDS011;40891;47.242;8.648;2023-02-15T13:05:51;12.73;;;11.23;;
54993;SDS011;40891;47.242;8.648;2023-02-15T13:08:30;14.98;;;10.63;;
54993;SDS011;40891;47.242;8.648;2023-02-15T13:10:59;12.40;;;10.30;;
54993;SDS011;40891;47.242;8.648;2023-02-15T13:13:33;11.00;;;9.80;;
54993;SDS011;40891;47.242;8.648;2023-02-15T13:16:04;10.18;;;9.18;;
54993;SDS011;40891;47.242;8.648;2023-02-15T13:18:36;10.23;;;9.23;;
54993;SDS011;40891;47.242;8.648;2023-02-15T13:21:38;12.15;;;9.65;;
54993;SDS011;40891;47.242;8.648;2023-02-15T13:26:26;12.30;;;9.55;;
54993;SDS011;40891;47.242;8.648;2023-02-15T13:29:28;11.07;;;9.80;;
54993;SDS011;40891;47.242;8.648;2023-02-15T13:31:57;12.73;;;9.80;;
54993;SDS011;40891;47.242;8.648;2023-02-15T13:34:32;10.93;;;9.82;;
54993;SDS011;40891;47.242;8.648;2023-02-15T13:37:04;11.93;;;10.60;;
54993;SDS011;40891;47.242;8.648;2023-02-15T13:42:30;11.25;;;10.10;;
54993;SDS011;40891;47.242;8.648;2023-02-15T14:01:41;11.88;;;9.68;;
54993;SDS011;40891;47.242;8.648;2023-02-15T14:15:32;10.88;;;9.23;;
54993;SDS011;40891;47.242;8.648;2023-02-15T14:23:52;9.68;;;8.55;;
54993;SDS011;40891;47.242;8.648;2023-02-15T14:31:49;10.63;;;9.52;;
54993;SDS011;40891;47.242;8.648;2023-02-15T14:34:20;9.80;;;8.88;;
54993;SDS011;40891;47.242;8.648;2023-02-15T14:36:50;15.20;;;8.85;;
54993;SDS011;40891;47.242;8.648;2023-02-15T14:39:22;10.13;;;9.07;;
54993;SDS011;40891;47.242;8.648;2023-02-15T14:42:28;10.25;;;9.00;;
54993;SDS011;40891;47.242;8.648;2023-02-15T14:44:55;11.57;;;8.68;;
54993;SDS011;40891;47.242;8.648;2023-02-15T14:47:27;11.90;;;9.27;;
54993;SDS011;40891;47.242;8.648;2023-02-15T14:49:57;10.90;;;9.15;;
54993;SDS011;40891;47.242;8.648;2023-02-15T14:52:23;9.65;;;8.65;;
54993;SDS011;40891;47.242;8.648;2023-02-15T15:02:18;9.40;;;8.35;;
54993;SDS011;40891;47.242;8.648;2023-02-15T15:07:47;9.45;;;8.45;;
54993;SDS011;40891;47.242;8.648;2023-02-15T15:15:12;8.85;;;7.95;;
54993;SDS011;40891;47.242;8.648;2023-02-15T15:22:50;16.65;;;12.90;;
54993;SDS011;40891;47.242;8.648;2023-02-15T15:29:02;12.48;;;10.02;;
54993;SDS011;40891;47.242;8.648;2023-02-15T15:43:00;15.50;;;10.27;;
54993;SDS011;40891;47.242;8.648;2023-02-15T15:46:12;14.07;;;9.52;;
54993;SDS011;40891;47.242;8.648;2023-02-15T15:48:39;15.43;;;10.40;;
54993;SDS011;40891;47.242;8.648;2023-02-15T15:53:46;15.43;;;10.33;;
54993;SDS011;40891;47.242;8.648;2023-02-15T15:56:29;16.47;;;10.17;;
54993;SDS011;40891;47.242;8.648;2023-02-15T15:58:59;15.77;;;10.77;;
54993;SDS011;40891;47.242;8.648;2023-02-15T16:01:41;16.93;;;10.17;;
54993;SDS011;40891;47.242;8.648;2023-02-15T16:04:41;16.50;;;11.10;;
54993;SDS011;40891;47.242;8.648;2023-02-15T16:07:13;19.23;;;10.27;;
54993;SDS011;40891;47.242;8.648;2023-02-15T16:09:38;20.30;;;10.97;;
54993;SDS011;40891;47.242;8.648;2023-02-15T16:12:04;17.97;;;11.53;;
54993;SDS011;40891;47.242;8.648;2023-02-15T16:14:39;17.97;;;10.93;;
54993;SDS011;40891;47.242;8.648;2023-02-15T16:17:17;18.33;;;10.60;;
54993;SDS011;40891;47.242;8.648;2023-02-15T16:19:47;16.27;;;11.10;;
54993;SDS011;40891;47.242;8.648;2023-02-15T16:22:13;17.33;;;10.73;;
54993;SDS011;40891;47.242;8.648;2023-02-15T16:24:50;17.03;;;10.60;;
54993;SDS011;40891;47.242;8.648;2023-02-15T16:27:33;16.50;;;10.67;;
54993;SDS011;40891;47.242;8.648;2023-02-15T16:30:16;16.17;;;10.57;;
54993;SDS011;40891;47.242;8.648;2023-02-15T16:32:41;27.40;;;10.80;;
54993;SDS011;40891;47.242;8.648;2023-02-15T16:35:13;22.97;;;11.50;;
54993;SDS011;40891;47.242;8.648;2023-02-15T16:37:40;16.60;;;10.83;;
54993;SDS011;40891;47.242;8.648;2023-02-15T16:40:06;19.03;;;10.70;;
54993;SDS011;40891;47.242;8.648;2023-02-15T16:42:50;19.23;;;10.93;;
54993;SDS011;40891;47.242;8.648;2023-02-15T16:45:18;15.43;;;10.33;;
54993;SDS011;40891;47.242;8.648;2023-02-15T16:47:46;21.73;;;11.27;;
54993;SDS011;40891;47.242;8.648;2023-02-15T16:50:31;26.53;;;11.20;;
54993;SDS011;40891;47.242;8.648;2023-02-15T16:53:00;24.97;;;13.77;;
54993;SDS011;40891;47.242;8.648;2023-02-15T16:55:33;21.90;;;13.00;;
54993;SDS011;40891;47.242;8.648;2023-02-15T16:58:04;25.73;;;13.17;;
54993;SDS011;40891;47.242;8.648;2023-02-15T17:00:33;23.00;;;12.37;;
54993;SDS011;40891;47.242;8.648;2023-02-15T17:03:03;26.47;;;13.27;;
54993;SDS011;40891;47.242;8.648;2023-02-15T17:08:25;22.57;;;12.70;;
54993;SDS011;40891;47.242;8.648;2023-02-15T17:11:04;18.77;;;11.93;;
54993;SDS011;40891;47.242;8.648;2023-02-15T17:13:38;22.43;;;13.13;;
54993;SDS011;40891;47.242;8.648;2023-02-15T17:18:30;24.83;;;13.03;;
54993;SDS011;40891;47.242;8.648;2023-02-15T17:20:59;21.00;;;12.33;;
54993;SDS011;40891;47.242;8.648;2023-02-15T17:23:34;22.90;;;12.33;;
54993;SDS011;40891;47.242;8.648;2023-02-15T17:26:38;24.33;;;12.27;;
54993;SDS011;40891;47.242;8.648;2023-02-15T17:31:52;22.60;;;11.87;;
54993;SDS011;40891;47.242;8.648;2023-02-15T17:37:31;22.57;;;11.57;;
54993;SDS011;40891;47.242;8.648;2023-02-15T17:40:17;26.90;;;11.93;;
54993;SDS011;40891;47.242;8.648;2023-02-15T17:42:50;23.23;;;11.47;;
54993;SDS011;40891;47.242;8.648;2023-02-15T17:45:17;19.03;;;11.33;;
54993;SDS011;40891;47.242;8.648;2023-02-15T17:47:47;22.73;;;11.93;;
54993;SDS011;40891;47.242;8.648;2023-02-15T17:50:19;20.27;;;11.00;;